Home > Products > Valid Products > TAF

000
FTUS43 KLBF 292320
TAFLBF
TAF
KLBF 292320Z 3000/3024 VRB04KT P6SM FEW150=



000
FTUS43 KLBF 292320
TAFVTN
TAF
KVTN 292320Z 3000/3024 29007KT P6SM SCT100
     FM300100 VRB05KT P6SM SKC=



000
FTUS43 KLBF 291720
TAFLBF
TAF
KLBF 291720Z 2918/3018 18008KT P6SM SCT120
     FM300000 15007KT P6SM SCT200
     FM300900 20007KT P6SM SCT200=



000
FTUS43 KLBF 291720
TAFVTN
TAF
KVTN 291720Z 2918/3018 28012G18KT P6SM SKC
     FM300100 22007KT P6SM SCT200
     FM300900 25007KT P6SM SCT200=



000
FTUS43 KLBF 291720
TAFLBF
TAF
KLBF 291720Z 2918/3018 18008KT P6SM SCT120
     FM300000 15007KT P6SM SCT200
     FM300900 20007KT P6SM SCT200=



000
FTUS43 KLBF 291720
TAFVTN
TAF
KVTN 291720Z 2918/3018 28012G18KT P6SM SKC
     FM300100 22007KT P6SM SCT200
     FM300900 25007KT P6SM SCT200=



000
FTUS43 KLBF 291214 AAA
TAFLBF
TAF AMD
KLBF 291214Z 2912/3012 VRB06KT P6SM BKN120
     FM291500 17005KT P6SM SCT120
     FM291800 18008KT P6SM FEW250=



000
FTUS43 KLBF 291214 AAA
TAFLBF
TAF AMD
KLBF 291214Z 2912/3012 VRB06KT P6SM BKN120
     FM291500 17005KT P6SM SCT120
     FM291800 18008KT P6SM FEW250=



000
FTUS43 KLBF 291120
TAFLBF
TAF
KLBF 291120Z 2912/3012 VRB06KT P6SM SCT250
     FM291800 18008KT P6SM FEW250=



000
FTUS43 KLBF 291120
TAFLBF
TAF
KLBF 291120Z 2912/3012 VRB06KT P6SM SCT250
     FM291800 18008KT P6SM FEW250=



000
FTUS43 KLBF 291120
TAFVTN
TAF
KVTN 291120Z 2912/3012 VRB06KT P6SM SCT250
     FM291800 28012KT P6SM SCT250
     FM300100 19007KT P6SM SKC=



000
FTUS43 KLBF 291120
TAFVTN
TAF
KVTN 291120Z 2912/3012 VRB06KT P6SM SCT250
     FM291800 28012KT P6SM SCT250
     FM300100 19007KT P6SM SKC=



000
FTUS43 KLBF 290520
TAFLBF
TAF
KLBF 290520Z 2906/3006 VRB03KT P6SM SKC
     FM291800 18008KT P6SM FEW250=



000
FTUS43 KLBF 290520
TAFVTN
TAF
KVTN 290520Z 2906/3006 29006KT P6SM SKC
     FM291800 26011G18KT P6SM SKC
     FM300100 19007KT P6SM SKC=



000
FTUS43 KLBF 282353 RRA
TAFLBF
TAF
KLBF 282353Z 2900/2924 02005KT P6SM SKC
     FM291700 17007KT P6SM SCT250=



000
FTUS43 KLBF 282353 RRA
TAFVTN
TAF
KVTN 282353Z 2900/2924 29015KT P6SM SKC
     FM290300 28006KT P6SM SKC
     FM291700 30012G19KT P6SM SKC=



000
FTUS43 KLBF 282041 AAA
TAFVTN
TAF AMD
KVTN 282041Z 2821/2918 27012G20KT P6SM SCT250
     FM290000 29012KT P6SM SCT250
     FM290900 24007KT P6SM SCT250=



000
FTUS43 KLBF 281724
TAFVTN
TAF
KVTN 281724Z 2818/2918 32013G21KT P6SM SCT250
     FM290000 29012KT P6SM SCT250
     FM290900 24007KT P6SM SCT250=



000
FTUS43 KLBF 281724
TAFLBF
TAF
KLBF 281724Z 2818/2918 36014G22KT P6SM SCT250
     FM282100 33012KT P6SM SCT250
     FM290000 01006KT P6SM SCT250=



000
FTUS43 KLBF 281124 AAA
TAFLBF
TAF AMD
KLBF 281124Z 2811/2912 34014G22KT P6SM SCT250
     FM282100 33012KT P6SM SCT250
     FM290000 01006KT P6SM SKC=



000
FTUS43 KLBF 281124 AAA
TAFLBF
TAF AMD
KLBF 281124Z 2811/2912 34014G22KT P6SM SCT250
     FM282100 33012KT P6SM SCT250
     FM290000 01006KT P6SM SKC=



000
FTUS43 KLBF 281120
TAFVTN
TAF
KVTN 281120Z 2812/2912 30013G21KT P6SM SCT250
     FM290100 34009KT P6SM SKC=



000
FTUS43 KLBF 281120
TAFLBF
TAF
KLBF 281120Z 2812/2912 34012KT P6SM SCT250
     FM281400 34014G22KT P6SM SCT250
     FM282100 33012KT P6SM SCT250
     FM290000 01006KT P6SM SKC=



000
FTUS43 KLBF 280906 AAB
TAFVTN
TAF AMD
KVTN 280906Z 2809/2906 30012KT P6SM BKN200
     FM281100 31014G23KT P6SM SCT100 SCT250
     FM290100 34009KT P6SM SKC=



000
FTUS43 KLBF 280906 AAC
TAFLBF
TAF AMD
KLBF 280906Z 2809/2906 VRB06KT P6SM SCT200
     FM281200 34014G22KT P6SM SCT250
     FM282100 33012KT P6SM SCT250
     FM290000 01006KT P6SM SKC=



000
FTUS43 KLBF 280652 AAB
TAFLBF
TAF AMD
KLBF 280652Z 2807/2906 31014G22KT P6SM BKN100 OVC200
     FM280900 35014G22KT P6SM SCT120 SCT250
     FM290000 01006KT P6SM SKC=



000
FTUS43 KLBF 280652 AAB
TAFLBF
TAF AMD
KLBF 280652Z 2807/2906 31014G22KT P6SM BKN100 OVC200
     FM280900 35014G22KT P6SM SCT120 SCT250
     FM290000 01006KT P6SM SKC=



000
FTUS43 KLBF 280633 AAA
TAFVTN
TAF AMD
KVTN 280633Z 2807/2906 35014G22KT P6SM SCT050 BKN100
     FM281100 31019G29KT P6SM SCT100 SCT250
     FM290100 32009KT P6SM SKC=



000
FTUS43 KLBF 280633 AAA
TAFVTN
TAF AMD
KVTN 280633Z 2807/2906 35014G22KT P6SM SCT050 BKN100
     FM281100 31019G29KT P6SM SCT100 SCT250
     FM290100 32009KT P6SM SKC=



000
FTUS43 KLBF 280520
TAFLBF
TAF
KLBF 280520Z 2806/2906 14013G20KT P6SM SCT100 BKN200
     FM280900 35014G22KT P6SM SCT120 SCT250
     FM290000 01006KT P6SM SKC=



000
FTUS43 KLBF 280520
TAFVTN
TAF
KVTN 280520Z 2806/2906 15014G22KT P6SM SCT100 BKN200
     FM280900 23015G23KT P6SM BKN100 BKN200
     FM281100 31019G29KT P6SM SCT100 SCT250
     FM290100 32009KT P6SM SKC=



000
FTUS43 KLBF 272349 RRA
TAFLBF
TAF
KLBF 272349Z 2800/2824 15014G21KT P6SM BKN200
     FM280900 35015KT P6SM SCT120 SCT250=



000
FTUS43 KLBF 272349 RRA
TAFVTN
TAF
KVTN 272349Z 2800/2824 15016G23KT P6SM BKN200
      TEMPO 2802/2806 VRB35G45KT 2SM TSRA BKN050CB
     FM280600 30017G25KT P6SM SCT120 SCT250=



000
FTUS43 KLBF 272349 RRA
TAFLBF
TAF
KLBF 272349Z 2800/2824 15014G21KT P6SM BKN200
     FM280900 35015KT P6SM SCT120 SCT250=



000
FTUS43 KLBF 272349 RRA
TAFVTN
TAF
KVTN 272349Z 2800/2824 15016G23KT P6SM BKN200
      TEMPO 2802/2806 VRB35G45KT 2SM TSRA BKN050CB
     FM280600 30017G25KT P6SM SCT120 SCT250=



000
FTUS43 KLBF 271728
TAFVTN
TAF
KVTN 271728Z 2718/2818 14015G24KT P6SM SCT200
     FM272100 17015G24KT P6SM BKN070 OVC200
      TEMPO 2802/2806 VRB35G46KT 2SM TSRA BKN050CB
     FM280600 31013KT P6SM BKN120=



000
FTUS43 KLBF 271728
TAFLBF
TAF
KLBF 271728Z 2718/2818 18012G21KT P6SM SCT200
     FM280100 16011KT P6SM SCT070 OVC200
      TEMPO 2802/2806 VRB31G42KT 2SM TSRA BKN050CB
     FM280900 34013KT P6SM SCT120=



000
FTUS43 KLBF 271728
TAFLBF
TAF
KLBF 271728Z 2718/2818 18012G21KT P6SM SCT200
     FM280100 16011KT P6SM SCT070 OVC200
      TEMPO 2802/2806 VRB31G42KT 2SM TSRA BKN050CB
     FM280900 34013KT P6SM SCT120=



000
FTUS43 KLBF 271728
TAFVTN
TAF
KVTN 271728Z 2718/2818 14015G24KT P6SM SCT200
     FM272100 17015G24KT P6SM BKN070 OVC200
      TEMPO 2802/2806 VRB35G46KT 2SM TSRA BKN050CB
     FM280600 31013KT P6SM BKN120=



000
FTUS43 KLBF 271539 AAA
TAFVTN
TAF AMD
KVTN 271539Z 2716/2812 14013KT P6SM SCT250
     FM271700 17015G24KT P6SM SCT200
     FM280300 17012KT P6SM BKN070 OVC200 PROB30 2803/2806 VRB35G46KT
      2SM +TSRA BKN050CB=



000
FTUS43 KLBF 271120
TAFLBF
TAF
KLBF 271120Z 2712/2812 VRB03KT P6SM BKN250
     FM271600 16012G21KT P6SM SCT200
     FM272100 16012G22KT P6SM BKN200
     FM280100 17010KT P6SM BKN070 OVC200
      TEMPO 2802/2806 VRB31G42KT 2SM +TSRA BKN050CB=



000
FTUS43 KLBF 271120
TAFVTN
TAF
KVTN 271120Z 2712/2812 06004KT P6SM SCT250
     FM271700 17015G24KT P6SM SCT200
     FM280300 17012KT P6SM BKN070 OVC200 PROB30 2803/2806 VRB35G46KT
      2SM +TSRA BKN050CB=



000
FTUS43 KLBF 271120
TAFVTN
TAF
KVTN 271120Z 2712/2812 06004KT P6SM SCT250
     FM271700 17015G24KT P6SM SCT200
     FM280300 17012KT P6SM BKN070 OVC200 PROB30 2803/2806 VRB35G46KT
      2SM +TSRA BKN050CB=



000
FTUS43 KLBF 271120
TAFLBF
TAF
KLBF 271120Z 2712/2812 VRB03KT P6SM BKN250
     FM271600 16012G21KT P6SM SCT200
     FM272100 16012G22KT P6SM BKN200
     FM280100 17010KT P6SM BKN070 OVC200
      TEMPO 2802/2806 VRB31G42KT 2SM +TSRA BKN050CB=



000
FTUS43 KLBF 270521 CCA
TAFVTN
TAF COR
KVTN 270521Z 2706/2806 16011KT P6SM BKN200
     FM271100 18011KT P6SM SCT200
     FM271700 17013G22KT P6SM SCT100 BKN200 PROB30 2722/2804 4SM
      -TSRA BKN070CB=



000
FTUS43 KLBF 270520
TAFVTN
TAF
KVTN 270520Z 2706/2806 15011KT P6SM BKN200
     FM271100 18011KT P6SM SCT200
     FM271700 17013G22KT P6SM SCT100 BKN200 PROB30 2722/2804 4SM
      -TSRA BKN070CB=



000
FTUS43 KLBF 270520
TAFLBF
TAF
KLBF 270520Z 2706/2806 12010KT P6SM BKN200
     FM271000 17009KT P6SM SCT200
     FM271500 16010G19KT P6SM SCT200
     FM272100 16012G22KT P6SM BKN200 PROB30 2722/2804 4SM -TSRA
      BKN070CB=



000
FTUS43 KLBF 270520
TAFVTN
TAF
KVTN 270520Z 2706/2806 15011KT P6SM BKN200
     FM271100 18011KT P6SM SCT200
     FM271700 17013G22KT P6SM SCT100 BKN200 PROB30 2722/2804 4SM
      -TSRA BKN070CB=



000
FTUS43 KLBF 270520
TAFLBF
TAF
KLBF 270520Z 2706/2806 12010KT P6SM BKN200
     FM271000 17009KT P6SM SCT200
     FM271500 16010G19KT P6SM SCT200
     FM272100 16012G22KT P6SM BKN200 PROB30 2722/2804 4SM -TSRA
      BKN070CB=



    US Dept of Commerce
    National Oceanic and Atmospheric Administration
    National Weather Service
    1325 East West Highway
    Silver Spring, MD 20910
    Page Author: NWS Internet Services Team
Disclaimer
Information Quality
Credits
Glossary
Privacy Policy
Freedom of Information Act (FOIA)
About Us
Career Opportunities